Hunterstown, Pennsylvania
Current Conditions -  °F | °C
As of 3:53 PM on Monday 22 Dec 2014 (Local Time) from KRYT Reporting Station
Haze Haze  
Wind Chill: 26°   Ceiling: 800
Heat Index: 31°   Visibility: 1.7mi
Dew Point: 27°   Wind: 5mph
Humidity: 85%   Direction: 50°NE
Pressure: 30.13"   Gusts: NA
Location:  39.8288°N, 77.2253°W
Report Text: KRYT 222053Z AUTO 05004KT 1 3/4SM UP BR OVC008 M01/M03 A3013 RMK AO2 SLP222 P0000 60001 T10061028 56016 $
Loading
Personal Weather Stations






























Interactive Weather Map New forecast layout! Learn more

10-Day Weather Forecast

Advertisements
Track Severe Weather on mobile